KCIU/CIU METAR and TAF weather

Enter ICAO airport designator
Station Type Date Time Source
KCIU METAR 2020/04/06 08:56 UTC NOAA

KCIU 060856Z AUTO 14003KT 10SM CLR M02/M05 A3011 RMK AO2 SLP205 T10221050 58008 FZRANO


Station Type Date Time Source
KCIU Decoded METAR 2020/04/06 08:56 UTC NOAA

Sault Ste Marie, Chippewa County International Airport, MI, United States (KCIU) 46-15N 084-28W
Apr 06, 2020 - 04:56 AM EDT / 2020.04.06 0856 UTC
Wind: from the SE (140 degrees) at 3 MPH (3 KT):0
Visibility: 10 mile(s):0
Sky conditions: clear
Temperature: 28.0 F (-2.2 C)
Dew Point: 23.0 F (-5.0 C)
Relative Humidity: 81%
Pressure (altimeter): 30.11 in. Hg (1019 hPa)
Pressure tendency: 0.02 inches (0.8 hPa) lower than three hours ago
ob: KCIU 060856Z AUTO 14003KT 10SM CLR M02/M05 A3011 RMK AO2 SLP205 T10221050 58008 FZRANO
cycle: 9

Station Type Date Time Source
KCIU TAF UTC NOAA

Error!

Example: see airport list